sensor_id;sensor_type;location;lat;lon;timestamp;P1;durP1;ratioP1;P2;durP2;ratioP2
58123;SDS011;46725;48.068;20.832;2022-12-18T00:03:40;56.35;;;24.15;;
58123;SDS011;46725;48.068;20.832;2022-12-18T00:06:07;54.72;;;23.92;;
58123;SDS011;46725;48.068;20.832;2022-12-18T00:08:34;67.88;;;26.30;;
58123;SDS011;46725;48.068;20.832;2022-12-18T00:11:07;65.63;;;29.17;;
58123;SDS011;46725;48.068;20.832;2022-12-18T00:13:33;64.22;;;26.83;;
58123;SDS011;46725;48.068;20.832;2022-12-18T00:16:06;70.90;;;29.80;;
58123;SDS011;46725;48.068;20.832;2022-12-18T00:18:33;68.40;;;27.45;;
58123;SDS011;46725;48.068;20.832;2022-12-18T00:21:00;65.25;;;28.67;;
58123;SDS011;46725;48.068;20.832;2022-12-18T00:23:26;65.47;;;27.05;;
58123;SDS011;46725;48.068;20.832;2022-12-18T00:25:52;65.63;;;29.02;;
58123;SDS011;46725;48.068;20.832;2022-12-18T00:28:19;69.85;;;30.42;;
58123;SDS011;46725;48.068;20.832;2022-12-18T00:30:45;65.55;;;30.30;;
58123;SDS011;46725;48.068;20.832;2022-12-18T00:33:11;68.28;;;29.50;;
58123;SDS011;46725;48.068;20.832;2022-12-18T00:35:37;71.95;;;30.95;;
58123;SDS011;46725;48.068;20.832;2022-12-18T00:38:03;72.72;;;29.33;;
58123;SDS011;46725;48.068;20.832;2022-12-18T00:40:31;76.75;;;30.92;;
58123;SDS011;46725;48.068;20.832;2022-12-18T00:42:57;56.03;;;25.80;;
58123;SDS011;46725;48.068;20.832;2022-12-18T00:45:27;61.58;;;25.77;;
58123;SDS011;46725;48.068;20.832;2022-12-18T00:47:53;41.63;;;20.10;;
58123;SDS011;46725;48.068;20.832;2022-12-18T00:50:20;48.67;;;20.85;;
58123;SDS011;46725;48.068;20.832;2022-12-18T00:52:46;56.97;;;23.30;;
58123;SDS011;46725;48.068;20.832;2022-12-18T00:55:12;56.97;;;24.70;;
58123;SDS011;46725;48.068;20.832;2022-12-18T00:57:39;55.47;;;24.75;;
58123;SDS011;46725;48.068;20.832;2022-12-18T01:00:06;56.20;;;24.73;;
58123;SDS011;46725;48.068;20.832;2022-12-18T01:02:32;57.15;;;24.42;;
58123;SDS011;46725;48.068;20.832;2022-12-18T01:04:58;56.88;;;24.27;;
58123;SDS011;46725;48.068;20.832;2022-12-18T01:07:24;54.33;;;23.42;;
58123;SDS011;46725;48.068;20.832;2022-12-18T01:09:50;59.80;;;25.20;;
58123;SDS011;46725;48.068;20.832;2022-12-18T01:12:16;63.35;;;25.77;;
58123;SDS011;46725;48.068;20.832;2022-12-18T01:14:42;58.50;;;24.25;;
58123;SDS011;46725;48.068;20.832;2022-12-18T01:17:08;54.85;;;22.67;;
58123;SDS011;46725;48.068;20.832;2022-12-18T01:19:34;51.30;;;22.90;;
58123;SDS011;46725;48.068;20.832;2022-12-18T01:22:00;50.25;;;21.48;;
58123;SDS011;46725;48.068;20.832;2022-12-18T01:24:26;54.35;;;24.05;;
58123;SDS011;46725;48.068;20.832;2022-12-18T01:26:52;53.55;;;24.67;;
58123;SDS011;46725;48.068;20.832;2022-12-18T01:29:19;56.75;;;24.20;;
58123;SDS011;46725;48.068;20.832;2022-12-18T01:31:45;56.15;;;23.63;;
58123;SDS011;46725;48.068;20.832;2022-12-18T01:34:11;55.58;;;23.45;;
58123;SDS011;46725;48.068;20.832;2022-12-18T01:36:37;50.60;;;21.52;;
58123;SDS011;46725;48.068;20.832;2022-12-18T01:39:10;49.03;;;19.65;;
58123;SDS011;46725;48.068;20.832;2022-12-18T01:41:37;43.13;;;18.58;;
58123;SDS011;46725;48.068;20.832;2022-12-18T01:47:06;47.63;;;19.35;;
58123;SDS011;46725;48.068;20.832;2022-12-18T01:49:33;40.92;;;18.98;;
58123;SDS011;46725;48.068;20.832;2022-12-18T01:51:59;41.78;;;19.42;;
58123;SDS011;46725;48.068;20.832;2022-12-18T01:54:25;48.83;;;20.67;;
58123;SDS011;46725;48.068;20.832;2022-12-18T01:56:51;51.45;;;20.95;;
58123;SDS011;46725;48.068;20.832;2022-12-18T01:59:17;49.13;;;21.55;;
58123;SDS011;46725;48.068;20.832;2022-12-18T02:01:43;41.33;;;18.92;;
58123;SDS011;46725;48.068;20.832;2022-12-18T02:04:22;52.33;;;21.45;;
58123;SDS011;46725;48.068;20.832;2022-12-18T02:09:29;44.40;;;19.27;;
58123;SDS011;46725;48.068;20.832;2022-12-18T02:14:48;47.10;;;19.60;;
58123;SDS011;46725;48.068;20.832;2022-12-18T02:22:14;49.88;;;21.95;;
58123;SDS011;46725;48.068;20.832;2022-12-18T02:27:18;43.80;;;19.80;;
58123;SDS011;46725;48.068;20.832;2022-12-18T02:29:51;44.92;;;20.48;;
58123;SDS011;46725;48.068;20.832;2022-12-18T02:32:20;49.25;;;22.33;;
58123;SDS011;46725;48.068;20.832;2022-12-18T02:34:47;53.20;;;21.65;;
58123;SDS011;46725;48.068;20.832;2022-12-18T02:37:15;46.83;;;19.92;;
58123;SDS011;46725;48.068;20.832;2022-12-18T02:39:43;48.08;;;20.83;;
58123;SDS011;46725;48.068;20.832;2022-12-18T02:42:10;55.63;;;20.75;;
58123;SDS011;46725;48.068;20.832;2022-12-18T02:44:47;60.05;;;23.98;;
58123;SDS011;46725;48.068;20.832;2022-12-18T02:47:13;50.95;;;21.25;;
58123;SDS011;46725;48.068;20.832;2022-12-18T02:57:33;46.78;;;19.63;;
58123;SDS011;46725;48.068;20.832;2022-12-18T03:02:35;45.20;;;21.25;;
58123;SDS011;46725;48.068;20.832;2022-12-18T03:07:37;52.53;;;20.58;;
58123;SDS011;46725;48.068;20.832;2022-12-18T03:10:04;48.72;;;20.27;;
58123;SDS011;46725;48.068;20.832;2022-12-18T03:12:35;48.00;;;20.15;;
58123;SDS011;46725;48.068;20.832;2022-12-18T03:17:29;52.42;;;21.73;;
58123;SDS011;46725;48.068;20.832;2022-12-18T03:19:56;45.38;;;20.13;;
58123;SDS011;46725;48.068;20.832;2022-12-18T03:22:24;46.85;;;19.30;;
58123;SDS011;46725;48.068;20.832;2022-12-18T03:24:53;45.05;;;21.25;;
58123;SDS011;46725;48.068;20.832;2022-12-18T03:27:20;43.78;;;19.40;;
58123;SDS011;46725;48.068;20.832;2022-12-18T03:29:56;41.78;;;18.15;;
58123;SDS011;46725;48.068;20.832;2022-12-18T03:32:28;46.75;;;20.45;;
58123;SDS011;46725;48.068;20.832;2022-12-18T03:34:57;44.90;;;19.88;;
58123;SDS011;46725;48.068;20.832;2022-12-18T03:37:24;51.08;;;22.00;;
58123;SDS011;46725;48.068;20.832;2022-12-18T03:39:50;44.63;;;20.45;;
58123;SDS011;46725;48.068;20.832;2022-12-18T03:42:26;52.88;;;22.35;;
58123;SDS011;46725;48.068;20.832;2022-12-18T03:45:11;50.88;;;20.30;;
58123;SDS011;46725;48.068;20.832;2022-12-18T03:50:39;56.90;;;22.67;;
58123;SDS011;46725;48.068;20.832;2022-12-18T03:53:17;47.45;;;21.13;;
58123;SDS011;46725;48.068;20.832;2022-12-18T03:55:47;46.30;;;19.70;;
58123;SDS011;46725;48.068;20.832;2022-12-18T03:58:15;49.65;;;21.88;;
58123;SDS011;46725;48.068;20.832;2022-12-18T04:00:43;49.53;;;20.45;;
58123;SDS011;46725;48.068;20.832;2022-12-18T04:03:09;51.97;;;20.10;;
58123;SDS011;46725;48.068;20.832;2022-12-18T04:05:36;54.88;;;19.77;;
58123;SDS011;46725;48.068;20.832;2022-12-18T04:08:03;54.70;;;20.45;;
58123;SDS011;46725;48.068;20.832;2022-12-18T04:10:30;49.13;;;19.90;;
58123;SDS011;46725;48.068;20.832;2022-12-18T04:12:56;52.15;;;22.25;;
58123;SDS011;46725;48.068;20.832;2022-12-18T04:15:23;52.25;;;20.95;;
58123;SDS011;46725;48.068;20.832;2022-12-18T04:17:49;50.63;;;21.35;;
58123;SDS011;46725;48.068;20.832;2022-12-18T04:20:16;54.35;;;21.92;;
58123;SDS011;46725;48.068;20.832;2022-12-18T04:22:42;68.45;;;27.23;;
58123;SDS011;46725;48.068;20.832;2022-12-18T04:25:11;70.05;;;27.98;;
58123;SDS011;46725;48.068;20.832;2022-12-18T04:27:37;64.13;;;26.52;;
58123;SDS011;46725;48.068;20.832;2022-12-18T04:30:03;62.28;;;26.80;;
58123;SDS011;46725;48.068;20.832;2022-12-18T04:32:30;68.25;;;27.95;;
58123;SDS011;46725;48.068;20.832;2022-12-18T04:34:56;67.50;;;28.35;;
58123;SDS011;46725;48.068;20.832;2022-12-18T04:37:22;61.08;;;25.00;;
58123;SDS011;46725;48.068;20.832;2022-12-18T04:39:48;63.10;;;26.25;;
58123;SDS011;46725;48.068;20.832;2022-12-18T04:42:14;64.65;;;27.25;;
58123;SDS011;46725;48.068;20.832;2022-12-18T04:44:40;59.15;;;24.20;;
58123;SDS011;46725;48.068;20.832;2022-12-18T04:47:06;59.38;;;25.63;;
58123;SDS011;46725;48.068;20.832;2022-12-18T04:49:32;58.72;;;22.48;;
58123;SDS011;46725;48.068;20.832;2022-12-18T04:51:58;58.38;;;23.92;;
58123;SDS011;46725;48.068;20.832;2022-12-18T04:54:24;59.53;;;23.63;;
58123;SDS011;46725;48.068;20.832;2022-12-18T04:56:50;58.03;;;24.50;;
58123;SDS011;46725;48.068;20.832;2022-12-18T04:59:16;57.47;;;24.30;;
58123;SDS011;46725;48.068;20.832;2022-12-18T05:01:42;59.90;;;24.08;;
58123;SDS011;46725;48.068;20.832;2022-12-18T05:04:08;67.07;;;25.67;;
58123;SDS011;46725;48.068;20.832;2022-12-18T05:06:34;74.55;;;28.23;;
58123;SDS011;46725;48.068;20.832;2022-12-18T05:09:00;57.58;;;24.48;;
58123;SDS011;46725;48.068;20.832;2022-12-18T05:11:27;61.60;;;25.45;;
58123;SDS011;46725;48.068;20.832;2022-12-18T05:13:53;57.58;;;25.27;;
58123;SDS011;46725;48.068;20.832;2022-12-18T05:16:19;69.25;;;25.23;;
58123;SDS011;46725;48.068;20.832;2022-12-18T05:18:45;66.97;;;27.45;;
58123;SDS011;46725;48.068;20.832;2022-12-18T05:21:11;67.65;;;26.90;;
58123;SDS011;46725;48.068;20.832;2022-12-18T05:23:37;63.00;;;28.30;;
58123;SDS011;46725;48.068;20.832;2022-12-18T05:26:04;66.05;;;29.70;;
58123;SDS011;46725;48.068;20.832;2022-12-18T05:28:31;69.05;;;28.40;;
58123;SDS011;46725;48.068;20.832;2022-12-18T05:30:59;68.70;;;28.08;;
58123;SDS011;46725;48.068;20.832;2022-12-18T05:33:26;64.72;;;26.25;;
58123;SDS011;46725;48.068;20.832;2022-12-18T05:35:53;65.38;;;27.08;;
58123;SDS011;46725;48.068;20.832;2022-12-18T05:38:20;65.22;;;26.55;;
58123;SDS011;46725;48.068;20.832;2022-12-18T05:40:47;66.50;;;27.58;;
58123;SDS011;46725;48.068;20.832;2022-12-18T05:43:13;64.78;;;26.50;;
58123;SDS011;46725;48.068;20.832;2022-12-18T05:45:40;71.80;;;27.95;;
58123;SDS011;46725;48.068;20.832;2022-12-18T05:48:06;76.57;;;29.40;;
58123;SDS011;46725;48.068;20.832;2022-12-18T05:50:35;66.68;;;27.65;;
58123;SDS011;46725;48.068;20.832;2022-12-18T05:53:02;76.55;;;27.73;;
58123;SDS011;46725;48.068;20.832;2022-12-18T05:55:28;74.97;;;28.42;;
58123;SDS011;46725;48.068;20.832;2022-12-18T05:57:54;64.72;;;25.30;;
58123;SDS011;46725;48.068;20.832;2022-12-18T06:00:20;61.05;;;25.73;;
58123;SDS011;46725;48.068;20.832;2022-12-18T06:02:47;68.38;;;26.77;;
58123;SDS011;46725;48.068;20.832;2022-12-18T06:05:13;90.32;;;35.15;;
58123;SDS011;46725;48.068;20.832;2022-12-18T06:07:39;104.38;;;39.63;;
58123;SDS011;46725;48.068;20.832;2022-12-18T06:10:05;95.07;;;39.47;;
58123;SDS011;46725;48.068;20.832;2022-12-18T06:12:31;101.22;;;41.05;;
58123;SDS011;46725;48.068;20.832;2022-12-18T06:14:59;88.80;;;36.65;;
58123;SDS011;46725;48.068;20.832;2022-12-18T06:17:31;93.00;;;37.80;;
58123;SDS011;46725;48.068;20.832;2022-12-18T06:22:23;86.47;;;32.22;;
58123;SDS011;46725;48.068;20.832;2022-12-18T06:24:49;103.97;;;38.75;;
58123;SDS011;46725;48.068;20.832;2022-12-18T06:27:16;91.47;;;36.28;;
58123;SDS011;46725;48.068;20.832;2022-12-18T06:29:42;90.95;;;33.97;;
58123;SDS011;46725;48.068;20.832;2022-12-18T06:32:08;113.32;;;40.40;;
58123;SDS011;46725;48.068;20.832;2022-12-18T06:34:34;141.02;;;47.20;;
58123;SDS011;46725;48.068;20.832;2022-12-18T06:37:02;167.43;;;56.63;;
58123;SDS011;46725;48.068;20.832;2022-12-18T06:39:28;165.18;;;55.03;;
58123;SDS011;46725;48.068;20.832;2022-12-18T06:41:54;115.22;;;42.50;;
58123;SDS011;46725;48.068;20.832;2022-12-18T06:44:20;106.60;;;43.00;;
58123;SDS011;46725;48.068;20.832;2022-12-18T06:46:47;118.82;;;44.55;;
58123;SDS011;46725;48.068;20.832;2022-12-18T06:49:13;113.72;;;43.50;;
58123;SDS011;46725;48.068;20.832;2022-12-18T06:51:40;94.70;;;37.83;;
58123;SDS011;46725;48.068;20.832;2022-12-18T06:54:06;104.43;;;41.72;;
58123;SDS011;46725;48.068;20.832;2022-12-18T06:56:33;114.78;;;46.55;;
58123;SDS011;46725;48.068;20.832;2022-12-18T06:58:59;137.13;;;56.08;;
58123;SDS011;46725;48.068;20.832;2022-12-18T07:01:25;136.00;;;53.22;;
58123;SDS011;46725;48.068;20.832;2022-12-18T07:03:51;94.07;;;38.97;;
58123;SDS011;46725;48.068;20.832;2022-12-18T07:06:19;104.85;;;38.10;;
58123;SDS011;46725;48.068;20.832;2022-12-18T07:08:45;80.82;;;33.60;;
58123;SDS011;46725;48.068;20.832;2022-12-18T07:11:12;83.63;;;35.72;;
58123;SDS011;46725;48.068;20.832;2022-12-18T07:13:38;84.95;;;33.42;;
58123;SDS011;46725;48.068;20.832;2022-12-18T07:16:08;76.78;;;31.95;;
58123;SDS011;46725;48.068;20.832;2022-12-18T07:18:34;80.95;;;32.03;;
58123;SDS011;46725;48.068;20.832;2022-12-18T07:21:09;70.00;;;30.15;;
58123;SDS011;46725;48.068;20.832;2022-12-18T07:23:36;65.97;;;28.48;;
58123;SDS011;46725;48.068;20.832;2022-12-18T07:26:12;64.68;;;28.95;;
58123;SDS011;46725;48.068;20.832;2022-12-18T07:28:39;69.32;;;27.85;;
58123;SDS011;46725;48.068;20.832;2022-12-18T07:31:05;73.75;;;28.92;;
58123;SDS011;46725;48.068;20.832;2022-12-18T07:33:32;75.72;;;28.70;;
58123;SDS011;46725;48.068;20.832;2022-12-18T07:35:59;65.90;;;26.63;;
58123;SDS011;46725;48.068;20.832;2022-12-18T07:38:25;61.08;;;25.90;;
58123;SDS011;46725;48.068;20.832;2022-12-18T07:40:51;61.50;;;22.92;;
58123;SDS011;46725;48.068;20.832;2022-12-18T07:43:17;65.50;;;26.63;;
58123;SDS011;46725;48.068;20.832;2022-12-18T07:45:44;58.63;;;22.38;;
58123;SDS011;46725;48.068;20.832;2022-12-18T07:48:10;54.95;;;23.33;;
58123;SDS011;46725;48.068;20.832;2022-12-18T07:50:36;55.13;;;23.38;;
58123;SDS011;46725;48.068;20.832;2022-12-18T07:53:02;59.45;;;24.70;;
58123;SDS011;46725;48.068;20.832;2022-12-18T07:55:30;64.63;;;25.63;;
58123;SDS011;46725;48.068;20.832;2022-12-18T07:57:56;62.83;;;25.23;;
58123;SDS011;46725;48.068;20.832;2022-12-18T08:00:22;75.65;;;26.58;;
58123;SDS011;46725;48.068;20.832;2022-12-18T08:02:48;65.68;;;26.13;;
58123;SDS011;46725;48.068;20.832;2022-12-18T08:05:14;69.68;;;26.30;;
58123;SDS011;46725;48.068;20.832;2022-12-18T08:07:40;65.82;;;26.25;;
58123;SDS011;46725;48.068;20.832;2022-12-18T08:10:06;69.97;;;25.85;;
58123;SDS011;46725;48.068;20.832;2022-12-18T08:12:33;77.03;;;28.52;;
58123;SDS011;46725;48.068;20.832;2022-12-18T08:14:59;81.28;;;30.30;;
58123;SDS011;46725;48.068;20.832;2022-12-18T08:17:25;70.10;;;26.38;;
58123;SDS011;46725;48.068;20.832;2022-12-18T08:19:51;64.57;;;25.80;;
58123;SDS011;46725;48.068;20.832;2022-12-18T08:22:17;69.07;;;26.58;;
58123;SDS011;46725;48.068;20.832;2022-12-18T08:24:43;64.90;;;26.10;;
58123;SDS011;46725;48.068;20.832;2022-12-18T08:27:09;74.53;;;28.35;;
58123;SDS011;46725;48.068;20.832;2022-12-18T08:29:35;70.70;;;26.73;;
58123;SDS011;46725;48.068;20.832;2022-12-18T08:32:01;72.35;;;26.40;;
58123;SDS011;46725;48.068;20.832;2022-12-18T08:34:27;65.53;;;26.00;;
58123;SDS011;46725;48.068;20.832;2022-12-18T08:36:53;64.22;;;23.77;;
58123;SDS011;46725;48.068;20.832;2022-12-18T08:39:19;72.47;;;28.30;;
58123;SDS011;46725;48.068;20.832;2022-12-18T08:41:45;72.03;;;28.65;;
58123;SDS011;46725;48.068;20.832;2022-12-18T08:44:31;81.13;;;28.35;;
58123;SDS011;46725;48.068;20.832;2022-12-18T08:47:06;86.82;;;30.67;;
58123;SDS011;46725;48.068;20.832;2022-12-18T08:49:33;109.85;;;37.33;;
58123;SDS011;46725;48.068;20.832;2022-12-18T08:51:59;84.85;;;31.67;;
58123;SDS011;46725;48.068;20.832;2022-12-18T08:54:25;83.90;;;31.38;;
58123;SDS011;46725;48.068;20.832;2022-12-18T08:56:52;110.78;;;36.55;;
58123;SDS011;46725;48.068;20.832;2022-12-18T08:59:18;94.60;;;35.22;;
58123;SDS011;46725;48.068;20.832;2022-12-18T09:01:44;103.88;;;32.33;;
58123;SDS011;46725;48.068;20.832;2022-12-18T09:04:11;80.20;;;29.15;;
58123;SDS011;46725;48.068;20.832;2022-12-18T09:06:37;83.10;;;30.85;;
58123;SDS011;46725;48.068;20.832;2022-12-18T09:09:03;89.65;;;31.60;;
58123;SDS011;46725;48.068;20.832;2022-12-18T09:11:30;85.40;;;30.40;;
58123;SDS011;46725;48.068;20.832;2022-12-18T09:13:56;72.65;;;27.65;;
58123;SDS011;46725;48.068;20.832;2022-12-18T09:16:23;79.00;;;27.90;;
58123;SDS011;46725;48.068;20.832;2022-12-18T09:18:49;80.00;;;28.58;;
58123;SDS011;46725;48.068;20.832;2022-12-18T09:21:16;80.00;;;27.38;;
58123;SDS011;46725;48.068;20.832;2022-12-18T09:23:43;68.40;;;27.33;;
58123;SDS011;46725;48.068;20.832;2022-12-18T09:26:09;76.72;;;26.95;;
58123;SDS011;46725;48.068;20.832;2022-12-18T09:28:35;73.35;;;27.50;;
58123;SDS011;46725;48.068;20.832;2022-12-18T09:31:05;72.43;;;25.40;;
58123;SDS011;46725;48.068;20.832;2022-12-18T09:33:33;62.13;;;24.75;;
58123;SDS011;46725;48.068;20.832;2022-12-18T09:36:00;68.32;;;25.73;;
58123;SDS011;46725;48.068;20.832;2022-12-18T09:38:27;67.53;;;26.88;;
58123;SDS011;46725;48.068;20.832;2022-12-18T09:40:53;71.43;;;25.33;;
58123;SDS011;46725;48.068;20.832;2022-12-18T09:43:23;58.95;;;22.75;;
58123;SDS011;46725;48.068;20.832;2022-12-18T09:45:54;69.25;;;26.33;;
58123;SDS011;46725;48.068;20.832;2022-12-18T09:48:25;68.43;;;26.20;;
58123;SDS011;46725;48.068;20.832;2022-12-18T09:50:55;65.60;;;25.48;;
58123;SDS011;46725;48.068;20.832;2022-12-18T09:53:24;75.05;;;28.52;;
58123;SDS011;46725;48.068;20.832;2022-12-18T09:55:51;69.45;;;26.02;;
58123;SDS011;46725;48.068;20.832;2022-12-18T10:01:15;69.35;;;25.27;;
58123;SDS011;46725;48.068;20.832;2022-12-18T10:03:43;70.68;;;25.50;;
58123;SDS011;46725;48.068;20.832;2022-12-18T10:08:57;67.80;;;25.05;;
58123;SDS011;46725;48.068;20.832;2022-12-18T10:11:43;74.07;;;25.57;;
58123;SDS011;46725;48.068;20.832;2022-12-18T10:27:09;81.45;;;28.88;;
58123;SDS011;46725;48.068;20.832;2022-12-18T10:29:36;71.63;;;27.30;;
58123;SDS011;46725;48.068;20.832;2022-12-18T10:32:03;76.13;;;28.88;;
58123;SDS011;46725;48.068;20.832;2022-12-18T10:34:30;82.53;;;28.40;;
58123;SDS011;46725;48.068;20.832;2022-12-18T10:36:56;72.63;;;28.02;;
58123;SDS011;46725;48.068;20.832;2022-12-18T10:39:24;75.50;;;27.92;;
58123;SDS011;46725;48.068;20.832;2022-12-18T10:41:51;83.22;;;28.65;;
58123;SDS011;46725;48.068;20.832;2022-12-18T10:44:18;77.97;;;29.20;;
58123;SDS011;46725;48.068;20.832;2022-12-18T10:46:49;77.80;;;29.42;;
58123;SDS011;46725;48.068;20.832;2022-12-18T10:49:29;79.78;;;30.17;;
58123;SDS011;46725;48.068;20.832;2022-12-18T10:52:11;74.07;;;28.58;;
58123;SDS011;46725;48.068;20.832;2022-12-18T10:54:39;68.35;;;26.40;;
58123;SDS011;46725;48.068;20.832;2022-12-18T10:59:54;74.07;;;24.58;;
58123;SDS011;46725;48.068;20.832;2022-12-18T11:02:53;73.85;;;26.05;;
58123;SDS011;46725;48.068;20.832;2022-12-18T11:07:51;74.65;;;27.38;;
58123;SDS011;46725;48.068;20.832;2022-12-18T11:10:19;78.85;;;28.80;;
58123;SDS011;46725;48.068;20.832;2022-12-18T11:12:46;76.07;;;26.75;;
58123;SDS011;46725;48.068;20.832;2022-12-18T11:15:19;78.90;;;26.42;;
58123;SDS011;46725;48.068;20.832;2022-12-18T11:17:47;68.55;;;25.73;;
58123;SDS011;46725;48.068;20.832;2022-12-18T11:20:33;76.70;;;29.17;;
58123;SDS011;46725;48.068;20.832;2022-12-18T11:23:01;69.75;;;25.75;;
58123;SDS011;46725;48.068;20.832;2022-12-18T11:25:27;71.60;;;27.88;;
58123;SDS011;46725;48.068;20.832;2022-12-18T11:28:00;81.05;;;28.63;;
58123;SDS011;46725;48.068;20.832;2022-12-18T11:30:28;77.65;;;25.55;;
58123;SDS011;46725;48.068;20.832;2022-12-18T11:33:10;73.75;;;25.10;;
58123;SDS011;46725;48.068;20.832;2022-12-18T11:35:55;72.10;;;26.27;;
58123;SDS011;46725;48.068;20.832;2022-12-18T11:40:52;81.22;;;27.52;;
58123;SDS011;46725;48.068;20.832;2022-12-18T11:43:27;67.80;;;26.23;;
58123;SDS011;46725;48.068;20.832;2022-12-18T11:45:55;69.38;;;25.35;;
58123;SDS011;46725;48.068;20.832;2022-12-18T11:48:30;72.90;;;26.20;;
58123;SDS011;46725;48.068;20.832;2022-12-18T11:51:01;67.53;;;27.27;;
58123;SDS011;46725;48.068;20.832;2022-12-18T11:53:28;70.28;;;26.45;;
58123;SDS011;46725;48.068;20.832;2022-12-18T12:03:57;68.55;;;26.50;;
58123;SDS011;46725;48.068;20.832;2022-12-18T12:09:28;63.80;;;24.63;;
58123;SDS011;46725;48.068;20.832;2022-12-18T12:14:53;79.25;;;28.17;;
58123;SDS011;46725;48.068;20.832;2022-12-18T12:25:23;69.47;;;24.85;;
58123;SDS011;46725;48.068;20.832;2022-12-18T12:30:24;76.47;;;26.80;;
58123;SDS011;46725;48.068;20.832;2022-12-18T12:37:56;66.75;;;24.58;;
58123;SDS011;46725;48.068;20.832;2022-12-18T12:40:27;64.88;;;23.35;;
58123;SDS011;46725;48.068;20.832;2022-12-18T12:46:05;76.50;;;25.60;;
58123;SDS011;46725;48.068;20.832;2022-12-18T12:51:06;83.22;;;29.88;;
58123;SDS011;46725;48.068;20.832;2022-12-18T12:53:34;77.82;;;29.05;;
58123;SDS011;46725;48.068;20.832;2022-12-18T12:56:01;64.47;;;26.88;;
58123;SDS011;46725;48.068;20.832;2022-12-18T12:58:39;74.68;;;26.05;;
58123;SDS011;46725;48.068;20.832;2022-12-18T13:03:41;71.78;;;25.95;;
58123;SDS011;46725;48.068;20.832;2022-12-18T13:06:14;66.35;;;25.60;;
58123;SDS011;46725;48.068;20.832;2022-12-18T13:09:01;77.30;;;28.08;;
58123;SDS011;46725;48.068;20.832;2022-12-18T13:11:32;75.05;;;27.63;;
58123;SDS011;46725;48.068;20.832;2022-12-18T13:14:37;67.82;;;25.55;;
58123;SDS011;46725;48.068;20.832;2022-12-18T13:17:21;81.18;;;27.58;;
58123;SDS011;46725;48.068;20.832;2022-12-18T13:19:50;76.72;;;28.15;;
58123;SDS011;46725;48.068;20.832;2022-12-18T13:22:21;75.68;;;29.58;;
58123;SDS011;46725;48.068;20.832;2022-12-18T13:24:47;70.32;;;28.40;;
58123;SDS011;46725;48.068;20.832;2022-12-18T13:29:58;69.70;;;28.48;;
58123;SDS011;46725;48.068;20.832;2022-12-18T13:32:25;84.38;;;33.63;;
58123;SDS011;46725;48.068;20.832;2022-12-18T13:37:52;78.10;;;31.05;;
58123;SDS011;46725;48.068;20.832;2022-12-18T13:40:49;82.05;;;34.28;;
58123;SDS011;46725;48.068;20.832;2022-12-18T13:45:46;88.97;;;35.72;;
58123;SDS011;46725;48.068;20.832;2022-12-18T13:48:17;95.32;;;40.92;;
58123;SDS011;46725;48.068;20.832;2022-12-18T13:50:47;75.10;;;30.40;;
58123;SDS011;46725;48.068;20.832;2022-12-18T13:53:48;75.13;;;29.95;;
58123;SDS011;46725;48.068;20.832;2022-12-18T13:56:06;71.43;;;28.23;;
58123;SDS011;46725;48.068;20.832;2022-12-18T13:58:32;99.40;;;38.28;;
58123;SDS011;46725;48.068;20.832;2022-12-18T14:00:59;79.15;;;29.80;;
58123;SDS011;46725;48.068;20.832;2022-12-18T14:03:27;80.43;;;29.77;;
58123;SDS011;46725;48.068;20.832;2022-12-18T14:05:58;86.32;;;31.10;;
58123;SDS011;46725;48.068;20.832;2022-12-18T14:08:27;79.93;;;28.67;;
58123;SDS011;46725;48.068;20.832;2022-12-18T14:10:55;80.07;;;28.45;;
58123;SDS011;46725;48.068;20.832;2022-12-18T14:13:29;77.10;;;29.95;;
58123;SDS011;46725;48.068;20.832;2022-12-18T14:15:56;80.18;;;29.98;;
58123;SDS011;46725;48.068;20.832;2022-12-18T14:18:38;80.47;;;30.05;;
58123;SDS011;46725;48.068;20.832;2022-12-18T14:21:04;77.25;;;30.30;;
58123;SDS011;46725;48.068;20.832;2022-12-18T14:26:00;74.60;;;29.65;;
58123;SDS011;46725;48.068;20.832;2022-12-18T14:28:26;78.45;;;27.80;;
58123;SDS011;46725;48.068;20.832;2022-12-18T14:30:52;70.05;;;29.33;;
58123;SDS011;46725;48.068;20.832;2022-12-18T14:33:20;97.15;;;36.67;;
58123;SDS011;46725;48.068;20.832;2022-12-18T14:41:09;74.97;;;28.05;;
58123;SDS011;46725;48.068;20.832;2022-12-18T14:43:39;91.13;;;30.33;;
58123;SDS011;46725;48.068;20.832;2022-12-18T14:46:06;86.18;;;31.55;;
58123;SDS011;46725;48.068;20.832;2022-12-18T14:48:50;92.35;;;35.90;;
58123;SDS011;46725;48.068;20.832;2022-12-18T14:51:22;114.00;;;38.15;;
58123;SDS011;46725;48.068;20.832;2022-12-18T14:53:58;81.93;;;32.65;;
58123;SDS011;46725;48.068;20.832;2022-12-18T14:56:32;87.28;;;32.40;;
58123;SDS011;46725;48.068;20.832;2022-12-18T14:58:59;87.18;;;32.88;;
58123;SDS011;46725;48.068;20.832;2022-12-18T15:01:28;86.55;;;33.55;;
58123;SDS011;46725;48.068;20.832;2022-12-18T15:03:55;92.50;;;34.15;;
58123;SDS011;46725;48.068;20.832;2022-12-18T15:08:57;102.53;;;38.75;;
58123;SDS011;46725;48.068;20.832;2022-12-18T15:14:23;86.10;;;33.72;;
58123;SDS011;46725;48.068;20.832;2022-12-18T15:16:53;80.82;;;31.40;;
58123;SDS011;46725;48.068;20.832;2022-12-18T15:19:21;80.70;;;36.28;;
58123;SDS011;46725;48.068;20.832;2022-12-18T15:21:47;91.00;;;37.00;;
58123;SDS011;46725;48.068;20.832;2022-12-18T15:24:22;88.28;;;38.42;;
58123;SDS011;46725;48.068;20.832;2022-12-18T15:26:49;76.03;;;32.40;;
58123;SDS011;46725;48.068;20.832;2022-12-18T15:29:19;75.78;;;33.35;;
58123;SDS011;46725;48.068;20.832;2022-12-18T15:31:45;80.28;;;29.52;;
58123;SDS011;46725;48.068;20.832;2022-12-18T15:34:23;74.15;;;29.55;;
58123;SDS011;46725;48.068;20.832;2022-12-18T15:36:51;86.53;;;33.58;;
58123;SDS011;46725;48.068;20.832;2022-12-18T15:39:17;84.57;;;33.17;;
58123;SDS011;46725;48.068;20.832;2022-12-18T15:41:43;86.97;;;33.22;;
58123;SDS011;46725;48.068;20.832;2022-12-18T15:44:29;88.13;;;34.80;;
58123;SDS011;46725;48.068;20.832;2022-12-18T15:46:56;90.15;;;37.88;;
58123;SDS011;46725;48.068;20.832;2022-12-18T15:49:22;93.88;;;38.67;;
58123;SDS011;46725;48.068;20.832;2022-12-18T15:51:49;95.40;;;40.28;;
58123;SDS011;46725;48.068;20.832;2022-12-18T15:54:16;91.57;;;35.13;;
58123;SDS011;46725;48.068;20.832;2022-12-18T15:56:42;100.70;;;40.00;;
58123;SDS011;46725;48.068;20.832;2022-12-18T15:59:27;102.45;;;38.50;;
58123;SDS011;46725;48.068;20.832;2022-12-18T16:01:53;95.13;;;38.03;;
58123;SDS011;46725;48.068;20.832;2022-12-18T16:04:20;102.38;;;35.95;;
58123;SDS011;46725;48.068;20.832;2022-12-18T16:06:47;88.13;;;35.42;;
58123;SDS011;46725;48.068;20.832;2022-12-18T16:09:13;102.30;;;38.47;;
58123;SDS011;46725;48.068;20.832;2022-12-18T16:11:41;96.68;;;37.47;;
58123;SDS011;46725;48.068;20.832;2022-12-18T16:14:17;90.05;;;36.10;;
58123;SDS011;46725;48.068;20.832;2022-12-18T16:16:44;89.03;;;37.30;;
58123;SDS011;46725;48.068;20.832;2022-12-18T16:19:10;96.53;;;37.17;;
58123;SDS011;46725;48.068;20.832;2022-12-18T16:21:37;89.20;;;36.28;;